map of AUY home
AUY - Facility
Location
City:  Anelghowhat, Anatom (Aneityum, Kéamu) Island, Taféa, Vanuatu
Near (Alt.):Inyeug Island
ICAO:NVVA
IATA:AUY

Details
Type:Facility
Latitude:20°14'57"S (-20.249166)
Longitude:169°46'17"E (169.771389)
Elevation:7 ft (2 m)
Variation:12.30°E (WMM2015v2 magnetic declination)
0.01° annual change
Runways:unknown number
Longest:2000 ft (610 m)

Time
Time Zone:UTC+11
Local Time:

Weather
METAR:NVVA 040600Z 09004KT 9999 -RA FEW012 SCT020 OVC040 25/25 Q1004
TAF:NVVA 032220Z 0400/0424 12010G20KT 9999 SCT020 BKN040 PROB40 INTER 0406/0409 5000 -TSRA FEW012 SCT018 FEW022CB OVC050 INTER 0409/0412 7000 SHRA FEW012 BKN018 OVC040

Related Locations
Nearby:
Farthest:CGT: 12307 mi / 19806 km
Chinguetti [Chinguetti Airport], MR

Find:

   beyond  
but within

Other Information
Maps:
NOTAMs:
Links:
Sources:

  
  • flag of Vanuatu
  

Sectional Chart

Flight Planning
at skyvector.com

Satellite Image

Google Maps Satellite view

 

Copyright © 2004-2019 Karl L. Swartz. All rights reserved.
The Great Circle Mapper name and logo are trademarks of the Great Circle Mapper.
All other trademarks mentioned herein belong to their respective owners.
Please see credits for attibutions and further copyright information.

  Follow gcmap on Facebook Follow gcmap on Twitter GCmap on LinkedIn

hCard Microformat

Geo Microformat